Time;durP1;ratioP1;P1;durP2;ratioP2;P2;SDS_P1;SDS_P2;PMS_P1;PMS_P2;Temp;Humidity;BMP_temperature;BMP_pressure;BME280_temperature;BME280_humidity;BME280_pressure;Samples;Min_cycle;Max_cycle;Signal;HPM_P1;HPM_P2
2023/05/08 00:01:25;;;;;;;3.93;3.67;;;7.40;99.90;;;;;;5067886;28;20465;-54
2023/05/08 00:03:52;;;;;;;4.30;3.90;;;7.30;99.90;;;;;;5066932;28;20502;-54
2023/05/08 00:06:19;;;;;;;6.00;4.13;;;7.30;99.90;;;;;;5071241;28;20536;-55
2023/05/08 00:08:47;;;;;;;4.00;3.70;;;7.30;99.90;;;;;;5071692;28;20539;-54
2023/05/08 00:11:13;;;;;;;5.40;4.60;;;7.20;99.90;;;;;;5071377;28;20574;-53
2023/05/08 00:13:40;;;;;;;4.07;3.67;;;7.20;99.90;;;;;;5074163;28;20548;-54
2023/05/08 00:16:08;;;;;;;4.20;3.90;;;7.10;99.90;;;;;;5069300;28;20459;-53
2023/05/08 00:18:34;;;;;;;4.87;3.70;;;7.10;99.90;;;;;;5070811;28;20809;-54
2023/05/08 00:21:01;;;;;;;5.43;3.87;;;7.00;99.90;;;;;;5071483;28;20479;-55
2023/05/08 00:23:28;;;;;;;4.33;4.03;;;7.00;99.90;;;;;;5070089;28;20459;-54
2023/05/08 00:25:55;;;;;;;4.43;4.03;;;6.90;99.90;;;;;;5070209;28;20583;-54
2023/05/08 00:28:22;;;;;;;4.40;4.00;;;7.00;99.90;;;;;;5068699;28;20548;-54
2023/05/08 00:30:49;;;;;;;4.70;4.30;;;6.90;99.90;;;;;;5060518;28;20584;-54
2023/05/08 00:33:15;;;;;;;4.50;4.10;;;6.90;99.90;;;;;;5075742;28;20465;-54
2023/05/08 00:35:42;;;;;;;4.10;3.80;;;6.80;99.90;;;;;;5059094;28;20451;-55
2023/05/08 00:38:09;;;;;;;4.37;4.07;;;6.90;99.90;;;;;;5069918;28;20542;-53
2023/05/08 00:40:35;;;;;;;4.10;3.60;;;6.80;99.90;;;;;;5070608;28;21089;-54
2023/05/08 00:43:03;;;;;;;12.27;4.37;;;6.80;99.90;;;;;;5068305;28;21053;-54
2023/05/08 00:45:36;;;;;;;6.73;4.00;;;6.80;99.90;;;;;;5068926;28;20489;-54
2023/05/08 00:48:03;;;;;;;3.83;3.53;;;6.90;99.90;;;;;;5064923;28;20906;-55
2023/05/08 00:50:30;;;;;;;6.70;4.17;;;6.90;99.90;;;;;;5072169;28;20577;-54
2023/05/08 00:52:58;;;;;;;4.13;3.83;;;6.90;99.90;;;;;;5072811;28;20464;-53
2023/05/08 00:55:25;;;;;;;4.40;4.00;;;6.90;99.90;;;;;;5069712;28;20585;-54
2023/05/08 00:57:52;;;;;;;4.50;4.10;;;7.00;99.90;;;;;;5069724;28;20595;-53
2023/05/08 01:00:21;;;;;;;4.90;4.10;;;6.90;99.90;;;;;;5072301;28;21155;-54
2023/05/08 01:02:48;;;;;;;4.83;4.30;;;7.10;99.90;;;;;;5065359;28;20491;-54
2023/05/08 01:05:15;;;;;;;5.70;4.03;;;7.00;99.90;;;;;;5070065;28;20960;-53
2023/05/08 01:07:42;;;;;;;4.03;3.70;;;7.00;99.90;;;;;;5073009;28;20507;-54
2023/05/08 01:10:09;;;;;;;4.40;4.10;;;7.00;99.90;;;;;;5066236;28;20672;-54
2023/05/08 01:12:52;;;;;;;3.97;3.70;;;7.00;99.90;;;;;;5068695;28;20546;-54
2023/05/08 01:15:29;;;;;;;4.00;3.70;;;7.00;99.90;;;;;;5067133;28;20483;-52
2023/05/08 01:18:04;;;;;;;4.20;3.80;;;7.10;99.90;;;;;;5069796;28;20989;-52
2023/05/08 01:20:39;;;;;;;4.60;3.90;;;7.10;99.90;;;;;;5071042;28;20512;-52
2023/05/08 01:23:45;;;;;;;4.63;4.20;;;7.10;99.90;;;;;;5070723;28;20503;-51
2023/05/08 01:26:26;;;;;;;4.33;4.03;;;7.10;99.90;;;;;;5072186;28;20484;-51
2023/05/08 01:29:20;;;;;;;4.87;4.47;;;7.00;99.90;;;;;;5069599;28;20542;-52
2023/05/08 01:32:14;;;;;;;3.93;3.60;;;7.00;99.90;;;;;;5054414;28;20554;-51
2023/05/08 01:34:48;;;;;;;4.20;3.90;;;7.00;99.90;;;;;;5069022;28;20832;-51
2023/05/08 01:37:19;;;;;;;4.90;4.30;;;6.90;99.90;;;;;;5069890;28;20464;-52
2023/05/08 01:39:58;;;;;;;6.90;4.10;;;6.90;99.90;;;;;;5065996;28;20950;-51
2023/05/08 01:42:34;;;;;;;8.53;4.20;;;6.90;99.90;;;;;;5073285;28;20997;-52
2023/05/08 01:45:04;;;;;;;4.47;4.03;;;6.80;99.90;;;;;;5066555;28;20466;-52
2023/05/08 01:47:36;;;;;;;3.57;3.37;;;6.70;99.90;;;;;;5067846;28;20467;-52
2023/05/08 01:50:07;;;;;;;4.53;4.00;;;6.80;99.90;;;;;;5067114;28;20610;-51
2023/05/08 01:52:37;;;;;;;4.17;3.87;;;6.70;99.90;;;;;;5071709;28;20558;-52
2023/05/08 01:55:08;;;;;;;4.70;4.37;;;6.70;99.90;;;;;;5068623;28;20500;-51
2023/05/08 01:57:48;;;;;;;3.97;3.67;;;6.60;99.90;;;;;;5069702;28;20494;-51
2023/05/08 02:00:18;;;;;;;4.80;4.30;;;6.60;99.90;;;;;;5067759;28;20570;-51
2023/05/08 02:02:47;;;;;;;5.43;4.70;;;6.60;99.90;;;;;;5069072;28;20517;-51
2023/05/08 02:05:14;;;;;;;4.67;4.37;;;6.50;99.90;;;;;;5069143;28;21054;-52
2023/05/08 02:07:43;;;;;;;4.50;4.10;;;6.50;99.90;;;;;;5065735;28;20509;-52
2023/05/08 02:10:11;;;;;;;5.07;4.00;;;6.50;99.90;;;;;;5066250;28;20511;-51
2023/05/08 02:12:40;;;;;;;4.40;4.10;;;6.50;99.90;;;;;;5074240;28;20542;-52
2023/05/08 02:15:09;;;;;;;7.47;4.20;;;6.50;99.90;;;;;;5070341;28;20478;-51
2023/05/08 02:17:37;;;;;;;4.10;3.80;;;6.40;99.90;;;;;;5070618;28;20463;-51
2023/05/08 02:20:07;;;;;;;4.80;4.03;;;6.50;99.90;;;;;;5075844;28;20507;-52
2023/05/08 02:22:36;;;;;;;3.90;3.60;;;6.40;99.90;;;;;;5074803;28;20522;-52
2023/05/08 02:25:03;;;;;;;4.37;3.87;;;6.40;99.90;;;;;;5077002;28;20448;-51
2023/05/08 02:27:31;;;;;;;4.07;3.77;;;6.40;99.90;;;;;;5069988;28;20546;-51
2023/05/08 02:29:59;;;;;;;4.83;3.47;;;6.40;99.90;;;;;;5067986;28;20488;-51
2023/05/08 02:32:27;;;;;;;5.20;4.07;;;6.30;99.90;;;;;;5066257;28;20460;-51
2023/05/08 02:34:55;;;;;;;4.07;3.77;;;6.30;99.90;;;;;;5076305;28;20463;-51
2023/05/08 02:37:23;;;;;;;4.90;4.50;;;6.30;99.90;;;;;;5072085;28;20491;-52
2023/05/08 02:39:53;;;;;;;4.77;4.20;;;6.40;99.90;;;;;;5070255;28;20959;-51
2023/05/08 02:42:20;;;;;;;5.80;3.93;;;6.30;99.90;;;;;;5070871;28;20495;-52
2023/05/08 02:44:46;;;;;;;4.33;3.93;;;6.30;99.90;;;;;;5071937;28;20987;-52
2023/05/08 02:47:20;;;;;;;5.20;4.80;;;6.30;99.90;;;;;;5070207;28;20496;-52
2023/05/08 02:49:52;;;;;;;5.27;4.87;;;6.30;99.90;;;;;;5071596;28;20486;-51
2023/05/08 02:52:27;;;;;;;6.67;4.90;;;6.20;99.90;;;;;;5071261;28;20495;-51
2023/05/08 02:54:58;;;;;;;4.13;3.83;;;6.20;99.90;;;;;;5065487;28;20499;-52
2023/05/08 02:57:33;;;;;;;6.60;4.40;;;6.20;99.90;;;;;;5070286;28;20547;-51
2023/05/08 03:00:04;;;;;;;4.83;4.43;;;6.10;99.90;;;;;;5071482;28;20477;-51
2023/05/08 03:02:35;;;;;;;5.30;4.90;;;6.10;99.90;;;;;;5074307;28;20465;-52
2023/05/08 03:05:06;;;;;;;4.80;4.40;;;6.10;99.90;;;;;;5068327;28;20512;-51
2023/05/08 03:07:38;;;;;;;5.03;4.73;;;6.00;99.90;;;;;;5070594;28;20550;-51
2023/05/08 03:10:10;;;;;;;4.63;4.30;;;6.00;99.90;;;;;;5070714;28;20475;-53
2023/05/08 03:12:41;;;;;;;9.70;4.87;;;5.90;99.90;;;;;;5075835;28;20482;-52
2023/05/08 03:15:14;;;;;;;4.40;4.10;;;6.00;99.90;;;;;;5083718;28;20459;-52
2023/05/08 03:17:44;;;;;;;5.27;4.77;;;6.00;99.90;;;;;;5069785;28;20968;-50
2023/05/08 03:20:16;;;;;;;11.77;4.80;;;6.00;99.90;;;;;;5067001;28;20561;-52
2023/05/08 03:22:47;;;;;;;5.30;4.90;;;5.90;99.90;;;;;;5075548;28;20463;-52
2023/05/08 03:25:16;;;;;;;6.10;5.10;;;5.80;99.90;;;;;;5088581;28;20479;-52
2023/05/08 03:27:44;;;;;;;5.07;4.67;;;5.80;99.90;;;;;;5084686;28;20457;-52
2023/05/08 03:30:12;;;;;;;5.90;5.37;;;5.70;99.90;;;;;;5083222;28;20480;-51
2023/05/08 03:32:39;;;;;;;5.00;4.43;;;5.70;99.90;;;;;;5069156;28;20483;-51
2023/05/08 03:35:07;;;;;;;5.47;5.00;;;5.60;99.90;;;;;;5075179;28;20445;-49
2023/05/08 03:37:34;;;;;;;5.63;5.13;;;5.50;99.90;;;;;;5061875;28;20521;-50
2023/05/08 03:40:02;;;;;;;5.10;4.60;;;5.50;99.90;;;;;;5063571;28;20515;-50
2023/05/08 03:42:31;;;;;;;5.50;5.00;;;5.40;99.90;;;;;;5067263;28;20456;-50
2023/05/08 03:44:58;;;;;;;5.90;5.10;;;5.30;99.90;;;;;;5065422;28;20550;-51
2023/05/08 03:47:25;;;;;;;5.37;4.87;;;5.30;99.90;;;;;;5071009;28;20494;-50
2023/05/08 03:49:52;;;;;;;10.10;4.80;;;5.20;99.90;;;;;;5062751;28;20481;-50
2023/05/08 03:52:19;;;;;;;5.37;4.53;;;5.20;99.90;;;;;;5059982;28;21034;-49
2023/05/08 03:54:46;;;;;;;5.80;4.50;;;5.20;99.90;;;;;;5066016;28;20882;-50
2023/05/08 03:57:14;;;;;;;5.20;4.77;;;5.20;99.90;;;;;;5071303;28;20513;-50
2023/05/08 03:59:46;;;;;;;5.50;5.00;;;5.20;99.90;;;;;;5067745;28;21020;-49
2023/05/08 04:02:19;;;;;;;5.23;4.73;;;5.20;99.90;;;;;;5065267;28;20456;-49
2023/05/08 04:04:50;;;;;;;4.97;4.57;;;5.20;99.90;;;;;;5067440;28;20499;-49
2023/05/08 04:07:24;;;;;;;5.67;4.67;;;5.30;99.90;;;;;;5073176;28;20499;-48
2023/05/08 04:09:59;;;;;;;4.90;4.50;;;5.30;99.90;;;;;;5069142;28;20514;-50
2023/05/08 04:12:36;;;;;;;5.13;4.80;;;5.40;99.90;;;;;;5069279;28;20509;-50
2023/05/08 04:15:07;;;;;;;4.60;4.30;;;5.40;99.90;;;;;;5069056;28;20491;-50
2023/05/08 04:17:40;;;;;;;8.67;5.10;;;5.40;99.90;;;;;;5071075;28;20520;-50
2023/05/08 04:20:09;;;;;;;6.17;5.10;;;5.50;99.90;;;;;;5070251;28;20525;-50
2023/05/08 04:22:38;;;;;;;4.53;4.23;;;5.60;99.90;;;;;;5071649;28;20448;-49
2023/05/08 04:25:07;;;;;;;5.23;4.73;;;5.70;99.90;;;;;;5074711;28;20500;-50
2023/05/08 04:27:35;;;;;;;6.77;5.13;;;5.80;99.90;;;;;;5077135;28;20496;-49
2023/05/08 04:30:03;;;;;;;5.13;4.73;;;5.90;99.90;;;;;;5075395;28;20988;-50
2023/05/08 04:32:30;;;;;;;5.27;4.87;;;6.00;99.90;;;;;;5087981;28;20524;-50
2023/05/08 04:34:56;;;;;;;7.50;5.47;;;6.00;99.90;;;;;;5074883;28;20452;-50
2023/05/08 04:37:27;;;;;;;8.10;5.80;;;6.10;99.90;;;;;;5075382;28;21020;-51
2023/05/08 04:39:53;;;;;;;5.60;5.10;;;6.20;99.90;;;;;;5072695;28;20494;-49
2023/05/08 04:42:20;;;;;;;10.70;5.00;;;6.30;99.90;;;;;;5072402;28;20530;-50
2023/05/08 04:44:48;;;;;;;5.80;5.20;;;6.30;99.90;;;;;;5076095;28;20462;-50
2023/05/08 04:47:15;;;;;;;8.20;5.53;;;6.40;99.90;;;;;;5069955;28;20486;-50
2023/05/08 04:49:42;;;;;;;6.60;5.90;;;6.50;99.90;;;;;;5065427;28;20516;-50
2023/05/08 04:52:08;;;;;;;5.70;5.27;;;6.60;99.90;;;;;;5076864;28;20574;-49
2023/05/08 04:54:35;;;;;;;5.87;5.43;;;6.70;99.90;;;;;;5070381;28;20551;-51
2023/05/08 04:57:02;;;;;;;6.07;5.57;;;6.70;99.90;;;;;;5069127;28;20503;-51
2023/05/08 04:59:28;;;;;;;5.17;4.77;;;6.80;99.90;;;;;;5070034;28;20518;-50
2023/05/08 05:01:56;;;;;;;5.27;4.70;;;6.90;99.90;;;;;;5072706;28;20495;-51
2023/05/08 05:04:23;;;;;;;5.80;5.30;;;7.00;99.90;;;;;;5071129;28;20465;-50
2023/05/08 05:06:49;;;;;;;5.93;4.80;;;7.10;99.90;;;;;;5066343;28;20936;-50
2023/05/08 05:09:16;;;;;;;6.63;5.37;;;7.20;99.90;;;;;;5072372;28;20956;-50
2023/05/08 05:11:42;;;;;;;6.03;5.23;;;7.40;99.90;;;;;;5069810;28;20565;-49
2023/05/08 05:14:09;;;;;;;7.10;5.33;;;7.40;99.90;;;;;;5070131;28;20494;-49
2023/05/08 05:16:36;;;;;;;5.40;4.87;;;7.50;21.20;;;;;;5067650;28;20514;-49
2023/05/08 05:19:04;;;;;;;6.67;4.80;;;7.60;94.40;;;;;;5072542;28;20482;-50
2023/05/08 05:21:31;;;;;;;5.10;4.70;;;7.70;34.20;;;;;;5072437;28;20465;-50
2023/05/08 05:23:58;;;;;;;5.53;4.90;;;7.80;40.20;;;;;;5072288;28;20547;-50
2023/05/08 05:26:24;;;;;;;6.73;5.00;;;7.60;49.10;;;;;;5070178;28;20973;-49
2023/05/08 05:28:51;;;;;;;5.13;4.63;;;7.80;49.90;;;;;;5074149;28;20958;-52
2023/05/08 05:31:17;;;;;;;6.40;5.53;;;7.80;57.50;;;;;;5073210;28;20526;-52
2023/05/08 05:33:44;;;;;;;5.13;4.73;;;7.80;53.80;;;;;;5070705;28;20503;-52
2023/05/08 05:36:12;;;;;;;5.47;4.97;;;7.90;33.90;;;;;;5070125;28;20860;-52
2023/05/08 05:38:39;;;;;;;5.13;4.70;;;8.00;39.80;;;;;;5075789;28;20492;-52
2023/05/08 05:41:05;;;;;;;5.33;4.93;;;8.10;64.60;;;;;;5077484;28;20451;-52
2023/05/08 05:43:32;;;;;;;5.57;4.73;;;8.30;60.70;;;;;;5070616;28;20511;-51
2023/05/08 05:46:04;;;;;;;5.07;4.60;;;8.30;68.70;;;;;;5070251;28;20558;-51
2023/05/08 05:48:30;;;;;;;5.27;4.80;;;8.20;81.80;;;;;;5070972;28;20490;-51
2023/05/08 05:50:57;;;;;;;5.10;4.70;;;8.30;81.80;;;;;;5073402;28;20502;-52
2023/05/08 05:53:25;;;;;;;4.40;4.03;;;8.40;78.10;;;;;;5073144;28;20509;-52
2023/05/08 05:55:51;;;;;;;5.10;4.07;;;8.60;86.50;;;;;;5072820;28;20933;-52
2023/05/08 05:58:18;;;;;;;4.90;4.40;;;8.60;90.40;;;;;;5078296;28;20482;-53
2023/05/08 06:00:46;;;;;;;4.83;4.33;;;8.70;86.00;;;;;;5084733;28;20488;-51
2023/05/08 06:03:12;;;;;;;4.73;4.33;;;8.70;95.30;;;;;;5070693;28;20465;-51
2023/05/08 06:05:39;;;;;;;4.70;4.30;;;8.70;99.90;;;;;;5072565;28;20549;-51
2023/05/08 06:08:07;;;;;;;6.63;4.67;;;8.80;81.60;;;;;;5070916;28;20498;-50
2023/05/08 06:10:35;;;;;;;4.50;4.20;;;8.80;99.90;;;;;;5069443;28;20479;-52
2023/05/08 06:13:02;;;;;;;4.63;4.20;;;8.80;99.90;;;;;;5071300;28;20515;-51
2023/05/08 06:15:28;;;;;;;12.03;4.73;;;8.90;99.90;;;;;;5074765;28;20952;-51
2023/05/08 06:17:55;;;;;;;8.63;3.63;;;9.00;99.90;;;;;;5068460;28;20575;-51
2023/05/08 06:20:21;;;;;;;4.53;4.13;;;8.90;99.90;;;;;;5070597;28;20594;-51
2023/05/08 06:22:48;;;;;;;5.20;4.00;;;9.00;99.90;;;;;;5068771;28;20486;-51
2023/05/08 06:25:15;;;;;;;4.37;3.97;;;9.00;99.90;;;;;;5065775;28;20554;-51
2023/05/08 06:27:43;;;;;;;4.27;3.87;;;9.00;99.90;;;;;;5069014;28;20479;-53
2023/05/08 06:30:10;;;;;;;4.10;3.80;;;9.20;99.90;;;;;;5071884;28;21028;-51
2023/05/08 06:32:37;;;;;;;4.40;4.10;;;9.30;99.90;;;;;;5071254;28;20904;-51
2023/05/08 06:35:04;;;;;;;4.67;3.90;;;9.50;99.90;;;;;;5073913;28;20492;-51
2023/05/08 06:37:31;;;;;;;4.40;3.50;;;9.50;99.90;;;;;;5071136;28;20568;-51
2023/05/08 06:39:57;;;;;;;17.07;3.80;;;9.50;99.90;;;;;;5071728;28;20510;-51
2023/05/08 06:42:24;;;;;;;4.27;3.97;;;9.70;99.90;;;;;;5068633;28;20543;-51
2023/05/08 06:44:52;;;;;;;4.17;3.87;;;9.80;21.70;;;;;;5070539;28;20515;-52
2023/05/08 06:47:19;;;;;;;3.40;3.20;;;9.90;61.50;;;;;;5063651;28;20472;-52
2023/05/08 06:49:46;;;;;;;3.90;3.60;;;10.20;67.80;;;;;;5072331;28;20469;-52
2023/05/08 06:52:13;;;;;;;3.60;3.40;;;10.30;99.90;;;;;;5066807;28;20526;-52
2023/05/08 06:54:40;;;;;;;3.30;3.00;;;10.60;99.90;;;;;;5070143;28;20492;-52
2023/05/08 06:57:07;;;;;;;3.53;3.23;;;10.50;99.90;;;;;;5067422;28;20472;-56
2023/05/08 06:59:34;;;;;;;3.70;3.50;;;10.80;99.90;;;;;;5066561;28;20516;-53
2023/05/08 07:02:02;;;;;;;8.00;4.10;;;11.20;99.90;;;;;;5067919;28;20484;-52
2023/05/08 07:04:28;;;;;;;3.60;3.40;;;11.30;99.90;;;;;;5069897;28;20504;-52
2023/05/08 07:06:55;;;;;;;3.47;3.17;;;11.20;99.90;;;;;;5062445;28;20541;-52
2023/05/08 07:09:21;;;;;;;3.37;3.17;;;11.60;99.90;;;;;;5065632;28;20916;-51
2023/05/08 07:11:48;;;;;;;4.77;3.50;;;11.80;99.90;;;;;;5063250;28;21019;-52
2023/05/08 07:14:14;;;;;;;6.57;2.80;;;12.10;99.90;;;;;;5065155;28;20509;-52
2023/05/08 07:16:41;;;;;;;7.50;3.17;;;11.60;99.90;;;;;;5070037;28;20495;-51
2023/05/08 07:19:09;;;;;;;3.50;3.30;;;11.60;99.90;;;;;;5068631;28;20503;-51
2023/05/08 07:21:35;;;;;;;3.30;3.10;;;11.50;99.90;;;;;;5080874;28;20461;-53
2023/05/08 07:24:02;;;;;;;3.73;2.93;;;11.30;99.90;;;;;;5079876;28;20554;-52
2023/05/08 07:26:29;;;;;;;3.93;2.80;;;11.20;99.90;;;;;;5077871;28;20816;-52
2023/05/08 07:28:55;;;;;;;3.30;3.00;;;11.60;99.90;;;;;;5077274;28;20514;-56
2023/05/08 07:31:22;;;;;;;3.03;2.83;;;11.40;99.90;;;;;;5068021;28;20494;-51
2023/05/08 07:33:48;;;;;;;4.50;2.83;;;11.30;99.90;;;;;;5065086;28;20550;-52
2023/05/08 07:36:16;;;;;;;5.80;3.10;;;11.30;99.90;;;;;;5068243;28;20492;-51
2023/05/08 07:38:43;;;;;;;3.50;3.20;;;11.30;99.90;;;;;;5070248;28;20937;-52
2023/05/08 07:41:09;;;;;;;4.23;2.97;;;11.40;99.90;;;;;;5069232;28;20497;-52
2023/05/08 07:43:36;;;;;;;3.33;2.90;;;11.60;99.90;;;;;;5065285;28;20459;-52
2023/05/08 07:46:03;;;;;;;3.37;3.17;;;11.70;99.90;;;;;;5070885;28;20449;-52
2023/05/08 07:48:30;;;;;;;3.63;2.83;;;11.70;99.90;;;;;;5071378;28;20473;-52
2023/05/08 07:50:56;;;;;;;10.37;3.27;;;11.80;99.90;;;;;;5071992;28;20464;-51
2023/05/08 07:53:24;;;;;;;5.47;3.20;;;11.70;99.90;;;;;;5058133;28;20527;-52
2023/05/08 07:55:51;;;;;;;4.37;2.87;;;11.90;99.90;;;;;;5072041;28;20482;-51
2023/05/08 07:58:18;;;;;;;2.90;2.70;;;12.10;99.90;;;;;;5070885;28;20522;-52
2023/05/08 08:00:44;;;;;;;2.90;2.80;;;12.20;99.90;;;;;;5072091;28;20537;-52
2023/05/08 08:03:11;;;;;;;3.23;2.93;;;12.20;99.90;;;;;;5073101;28;20502;-53
2023/05/08 08:05:38;;;;;;;3.77;2.90;;;12.50;99.90;;;;;;5082961;28;20440;-53
2023/05/08 08:08:05;;;;;;;4.17;3.37;;;12.70;99.90;;;;;;5083915;28;20455;-52
2023/05/08 08:10:33;;;;;;;17.70;3.37;;;12.80;99.90;;;;;;5086175;28;20498;-53
2023/05/08 08:13:00;;;;;;;3.93;2.80;;;12.50;99.90;;;;;;5084786;28;20508;-53
2023/05/08 08:15:27;;;;;;;7.23;2.67;;;12.70;99.90;;;;;;5079436;28;20440;-54
2023/05/08 08:17:54;;;;;;;3.90;3.27;;;12.90;99.90;;;;;;5070544;28;20467;-53
2023/05/08 08:20:21;;;;;;;2.60;2.40;;;12.80;99.90;;;;;;5071230;28;21002;-53
2023/05/08 08:22:47;;;;;;;10.00;3.03;;;13.20;99.90;;;;;;5069770;28;20489;-53
2023/05/08 08:25:15;;;;;;;4.13;2.70;;;13.20;99.90;;;;;;5067291;28;20498;-52
2023/05/08 08:27:42;;;;;;;3.00;2.57;;;13.30;99.90;;;;;;5069054;28;20501;-52
2023/05/08 08:30:09;;;;;;;7.93;2.70;;;13.30;99.90;;;;;;5071719;28;20931;-52
2023/05/08 08:32:36;;;;;;;2.60;2.40;;;13.50;99.90;;;;;;5073063;28;20495;-51
2023/05/08 08:35:03;;;;;;;3.00;2.70;;;13.70;99.90;;;;;;5076072;28;20488;-51
2023/05/08 08:37:29;;;;;;;2.97;2.70;;;13.90;99.90;;;;;;5063615;28;20444;-52
2023/05/08 08:39:56;;;;;;;3.10;2.80;;;14.30;99.90;;;;;;5068497;28;20512;-52
2023/05/08 08:42:23;;;;;;;2.60;2.33;;;14.40;99.90;;;;;;5071363;28;20546;-52
2023/05/08 08:44:51;;;;;;;4.13;3.27;;;14.30;99.90;;;;;;5070670;28;20454;-52
2023/05/08 08:47:21;;;;;;;21.67;3.00;;;14.40;99.90;;;;;;5063903;28;20448;-52
2023/05/08 08:49:50;;;;;;;2.63;2.50;;;14.30;99.90;;;;;;5062092;28;20906;-51
2023/05/08 08:52:26;;;;;;;11.47;3.43;;;14.70;99.90;;;;;;5070267;28;20511;-51
2023/05/08 08:54:55;;;;;;;3.00;2.80;;;15.20;99.90;;;;;;5069663;28;20448;-52
2023/05/08 08:57:23;;;;;;;5.07;2.87;;;14.40;99.90;;;;;;5071006;28;20448;-51
2023/05/08 08:59:52;;;;;;;4.80;3.30;;;15.00;99.90;;;;;;5071373;28;20897;-52
2023/05/08 09:02:22;;;;;;;16.83;3.37;;;15.40;99.90;;;;;;5070924;28;20478;-52
2023/05/08 09:04:49;;;;;;;6.33;2.70;;;16.20;99.90;;;;;;5070302;28;20471;-52
2023/05/08 09:07:18;;;;;;;10.63;2.80;;;16.70;99.90;;;;;;5071438;28;20444;-52
2023/05/08 09:09:45;;;;;;;2.93;2.40;;;17.40;99.90;;;;;;5065944;28;20487;-52
2023/05/08 09:12:12;;;;;;;4.90;3.20;;;17.60;99.90;;;;;;5059601;28;20934;-72
2023/05/08 09:14:39;;;;;;;11.30;3.20;;;17.70;99.90;;;;;;5074399;28;20490;-52
2023/05/08 09:17:07;;;;;;;6.47;3.27;;;18.30;99.90;;;;;;5074180;28;20449;-52
2023/05/08 09:19:34;;;;;;;2.87;2.67;;;17.50;99.90;;;;;;5075144;28;20511;-54
2023/05/08 09:22:01;;;;;;;5.43;2.53;;;17.80;99.90;;;;;;5074713;28;20478;-51
2023/05/08 09:24:55;;;;;;;4.43;2.47;;;18.30;99.90;;;;;;5068825;28;20919;-52
2023/05/08 09:27:22;;;;;;;9.33;3.20;;;18.70;99.90;;;;;;5067869;28;20562;-52
2023/05/08 09:30:00;;;;;;;5.80;2.73;;;19.00;99.90;;;;;;5073511;28;20504;-52
2023/05/08 09:32:28;;;;;;;3.67;3.10;;;17.80;99.90;;;;;;5068388;28;20516;-52
2023/05/08 09:34:55;;;;;;;4.97;2.60;;;17.90;99.90;;;;;;5062999;28;20578;-53
2023/05/08 09:37:22;;;;;;;5.00;2.73;;;16.10;99.90;;;;;;5064204;28;20469;-52
2023/05/08 09:39:48;;;;;;;4.37;2.53;;;17.20;99.90;;;;;;5068268;28;20939;-52
2023/05/08 09:42:16;;;;;;;5.37;2.57;;;17.20;99.90;;;;;;5069930;22;20596;-51
2023/05/08 09:44:47;;;;;;;2.70;2.50;;;17.60;99.90;;;;;;5046818;28;20534;-52
2023/05/08 09:47:15;;;;;;;11.80;2.67;;;18.20;99.90;;;;;;5051380;28;20550;-52
2023/05/08 09:49:57;;;;;;;9.23;2.00;;;18.70;99.90;;;;;;5052694;28;20997;-55
2023/05/08 09:52:24;;;;;;;2.77;2.57;;;19.10;99.90;;;;;;5039877;28;20518;-55
2023/05/08 09:54:57;;;;;;;7.40;2.67;;;17.10;99.90;;;;;;5032777;28;20469;-54
2023/05/08 09:57:24;;;;;;;5.90;2.67;;;19.00;99.90;;;;;;5034107;28;20501;-56
2023/05/08 09:59:50;;;;;;;3.07;2.37;;;20.10;99.90;;;;;;5033633;28;21134;-55
2023/05/08 10:02:19;;;;;;;4.57;2.37;;;19.00;99.90;;;;;;5033986;28;20517;-54
2023/05/08 10:04:46;;;;;;;2.40;2.23;;;19.10;99.90;;;;;;5031637;28;21019;-56
2023/05/08 10:07:13;;;;;;;5.87;2.37;;;20.00;99.90;;;;;;5030121;28;20463;-54
2023/05/08 10:09:40;;;;;;;8.73;2.17;;;20.00;99.90;;;;;;5038362;28;20466;-54
2023/05/08 10:12:07;;;;;;;26.17;3.10;;;19.10;99.90;;;;;;5042852;28;20483;-57
2023/05/08 10:14:34;;;;;;;5.80;2.67;;;18.80;99.90;;;;;;5033236;28;20478;-54
2023/05/08 10:17:08;;;;;;;4.20;2.17;;;18.80;99.90;;;;;;5034234;28;20462;-55
2023/05/08 10:19:40;;;;;;;6.03;2.43;;;18.50;99.90;;;;;;5033850;28;20446;-55
2023/05/08 10:22:11;;;;;;;10.67;2.50;;;18.00;99.90;;;;;;5042616;28;20479;-55
2023/05/08 10:24:41;;;;;;;8.70;2.40;;;18.80;99.90;;;;;;5034105;28;20467;-54
2023/05/08 10:27:16;;;;;;;4.97;2.67;;;19.20;99.90;;;;;;5040175;28;20458;-57
2023/05/08 10:29:49;;;;;;;4.27;2.57;;;19.90;99.90;;;;;;5029499;28;20505;-56
2023/05/08 10:32:19;;;;;;;16.83;2.30;;;20.00;99.90;;;;;;5030004;28;20487;-54
2023/05/08 10:34:49;;;;;;;2.57;2.37;;;19.40;99.90;;;;;;5036050;28;21037;-54
2023/05/08 10:37:17;;;;;;;6.00;2.30;;;20.10;99.90;;;;;;5024254;28;20475;-54
2023/05/08 10:39:45;;;;;;;3.20;1.90;;;19.70;99.90;;;;;;5027819;28;20516;-55
2023/05/08 10:42:13;;;;;;;2.40;2.30;;;19.10;99.90;;;;;;5032996;28;20490;-56
2023/05/08 10:44:40;;;;;;;2.93;2.30;;;19.10;99.90;;;;;;5028993;28;20870;-56
2023/05/08 10:47:16;;;;;;;7.63;2.27;;;19.80;99.90;;;;;;5031907;28;20486;-55
2023/05/08 10:49:49;;;;;;;2.20;2.10;;;20.00;99.90;;;;;;5032572;28;20807;-55
2023/05/08 10:52:20;;;;;;;5.30;2.27;;;20.50;99.90;;;;;;5043047;28;20568;-54
2023/05/08 10:55:12;;;;;;;4.87;2.30;;;18.90;99.90;;;;;;5028762;28;20490;-53
2023/05/08 10:57:39;;;;;;;12.60;2.40;;;18.80;99.90;;;;;;5034720;28;20519;-52
2023/05/08 11:00:07;;;;;;;3.60;2.27;;;19.50;99.90;;;;;;5030902;28;20497;-53
2023/05/08 11:02:35;;;;;;;2.17;1.97;;;19.50;99.90;;;;;;5029187;28;20488;-52
2023/05/08 11:05:15;;;;;;;2.33;2.13;;;20.40;99.90;;;;;;5028020;28;20525;-53
2023/05/08 11:07:56;;;;;;;4.53;1.87;;;19.30;99.90;;;;;;5030596;28;20470;-52
2023/05/08 11:10:30;;;;;;;2.27;2.07;;;19.60;99.90;;;;;;5032589;28;20446;-53
2023/05/08 11:12:58;;;;;;;2.80;1.80;;;19.40;99.90;;;;;;5028501;28;20495;-53
2023/05/08 11:15:36;;;;;;;10.23;2.53;;;20.70;99.90;;;;;;5028010;28;20456;-52
2023/05/08 11:18:04;;;;;;;2.93;2.73;;;20.20;95.50;;;;;;5024279;28;20458;-52
2023/05/08 11:20:39;;;;;;;2.93;2.70;;;19.60;99.90;;;;;;5022711;28;20481;-53
2023/05/08 11:23:23;;;;;;;2.30;1.73;;;19.70;99.90;;;;;;5023986;28;20485;-53
2023/05/08 11:26:01;;;;;;;5.63;2.57;;;19.50;99.90;;;;;;5022638;28;20462;-51
2023/05/08 11:28:27;;;;;;;2.53;2.10;;;19.60;99.90;;;;;;5024882;28;21012;-52
2023/05/08 11:30:55;;;;;;;8.77;2.60;;;19.60;99.90;;;;;;5023906;28;20459;-52
2023/05/08 11:33:23;;;;;;;4.30;2.70;;;19.30;99.90;;;;;;5023534;28;20479;-51
2023/05/08 11:35:52;;;;;;;4.77;2.43;;;20.20;99.90;;;;;;5023341;28;20491;-53
2023/05/08 11:38:37;;;;;;;2.07;1.90;;;19.20;99.90;;;;;;5025303;28;20463;-52
2023/05/08 11:41:07;;;;;;;6.10;2.40;;;19.80;99.90;;;;;;5025910;28;20487;-52
2023/05/08 11:44:13;;;;;;;3.70;1.97;;;19.20;99.90;;;;;;5023913;28;20482;-51
2023/05/08 11:46:42;;;;;;;3.13;2.00;;;19.30;99.90;;;;;;5027402;28;20972;-52
2023/05/08 11:49:14;;;;;;;4.40;1.97;;;19.90;99.90;;;;;;5030736;28;20484;-52
2023/05/08 11:51:43;;;;;;;4.80;2.23;;;19.80;99.50;;;;;;5032264;28;20542;-53
2023/05/08 11:54:11;;;;;;;3.47;2.47;;;18.40;99.90;;;;;;5027160;28;20550;-53
2023/05/08 11:56:39;;;;;;;6.33;2.87;;;19.40;99.90;;;;;;5017977;28;20491;-51
2023/05/08 11:59:08;;;;;;;2.60;2.40;;;19.80;99.90;;;;;;5029138;28;20472;-53
2023/05/08 12:01:35;;;;;;;4.70;2.10;;;21.00;99.90;;;;;;5021554;28;20479;-52
2023/05/08 12:04:04;;;;;;;5.13;1.90;;;20.80;99.90;;;;;;5016427;28;20463;-52
2023/05/08 12:06:32;;;;;;;6.57;2.10;;;20.80;99.90;;;;;;5024894;28;21023;-53
2023/05/08 12:08:59;;;;;;;5.50;2.27;;;19.90;99.90;;;;;;5025600;28;20533;-53
2023/05/08 12:11:26;;;;;;;5.37;2.20;;;20.30;99.90;;;;;;5020921;28;20577;-51
2023/05/08 12:13:55;;;;;;;2.53;2.30;;;20.40;99.90;;;;;;5021941;28;20562;-51
2023/05/08 12:16:23;;;;;;;2.00;1.90;;;19.40;99.90;;;;;;5025081;28;20517;-52
2023/05/08 12:18:50;;;;;;;6.13;2.47;;;19.00;99.90;;;;;;5022639;28;20473;-52
2023/05/08 12:21:17;;;;;;;4.97;1.90;;;19.20;99.90;;;;;;5023557;28;20491;-52
2023/05/08 12:23:43;;;;;;;5.07;2.53;;;19.60;99.90;;;;;;5021052;28;21081;-51
2023/05/08 12:26:11;;;;;;;2.80;2.03;;;19.80;99.90;;;;;;5023839;28;20557;-53
2023/05/08 12:28:38;;;;;;;3.37;1.97;;;20.60;99.90;;;;;;5022018;28;20506;-53
2023/05/08 12:31:06;;;;;;;2.50;2.30;;;19.70;99.90;;;;;;5021437;28;20518;-52
2023/05/08 12:33:33;;;;;;;2.43;2.20;;;20.40;99.90;;;;;;5026084;28;20482;-52
2023/05/08 12:36:01;;;;;;;2.10;2.00;;;21.00;92.00;;;;;;5028289;28;20486;-52
2023/05/08 12:38:28;;;;;;;2.13;2.03;;;21.40;97.60;;;;;;5017534;28;20983;-52
2023/05/08 12:40:55;;;;;;;2.87;1.60;;;20.00;99.80;;;;;;5020069;28;20470;-53
2023/05/08 12:43:30;;;;;;;5.60;2.47;;;21.00;99.90;;;;;;5023680;28;20872;-52
2023/05/08 12:45:57;;;;;;;2.63;2.17;;;20.50;98.90;;;;;;5028964;28;20462;-53
2023/05/08 12:48:25;;;;;;;8.53;2.27;;;20.60;96.70;;;;;;5033018;28;20490;-52
2023/05/08 12:50:51;;;;;;;6.00;2.23;;;20.20;97.80;;;;;;5033211;28;20532;-52
2023/05/08 12:53:21;;;;;;;3.50;2.20;;;20.90;92.90;;;;;;5034131;28;20540;-51
2023/05/08 12:55:52;;;;;;;2.07;1.97;;;20.70;99.90;;;;;;5028966;28;20447;-52
2023/05/08 12:58:19;;;;;;;2.47;2.17;;;21.70;93.20;;;;;;5022282;28;20456;-52
2023/05/08 13:00:47;;;;;;;4.13;1.83;;;22.40;80.00;;;;;;5030019;28;20470;-52